EKKA/KRP METAR and TAF weather

Enter ICAO airport designator
Station Type Date Time Source
EKKA METAR 2020/12/01 20:50 UTC NOAA

EKKA 012050Z AUTO 05003KT 3500 BR OVC018/// 05/04 Q1024


Station Type Date Time Source
EKKA Decoded METAR 2020/12/01 20:50 UTC NOAA

Karup, Denmark (EKKA) 56-18N 009-07E 53M
Dec 01, 2020 - 03:50 PM EST / 2020.12.01 2050 UTC
Wind: from the NE (050 degrees) at 3 MPH (3 KT):0
Visibility: 2 mile(s):0
Sky conditions: overcast
Weather: mist
Temperature: 41 F (5 C)
Dew Point: 39 F (4 C)
Relative Humidity: 93%
Pressure (altimeter): 30.24 in. Hg (1024 hPa)
ob: EKKA 012050Z AUTO 05003KT 3500 BR OVC018/// 05/04 Q1024
cycle: 21

Station Type Date Time Source
EKKA TAF 2020/12/01 21:30 UTC NOAA

TAF TAF EKKA 012008Z 0121/0221 05005KT 4000 BR SCT005 BKN015
TEMPO 0121/0208 1800 -DZRA BKN003
BECMG 0205/0208 14005KT
TEMPO 0208/0213 8000 NSW BKN008
TEMPO 0213/0221 2000 BR -RADZ BKN004
BECMG 0213/0216 17005KT

Example: see airport list